createdAt,value
2017-11-09T00:01:59.186Z,55.03
2017-11-09T00:04:31.441Z,52.47
2017-11-09T00:06:58.078Z,53.87
2017-11-09T00:09:24.674Z,54.63
2017-11-09T00:11:51.299Z,54.17
2017-11-09T00:14:17.913Z,53.63
2017-11-09T00:16:44.547Z,53.37
2017-11-09T00:19:11.177Z,52.13
2017-11-09T00:21:37.795Z,53.17
2017-11-09T00:24:04.495Z,51.13
2017-11-09T00:26:31.126Z,52.40
2017-11-09T00:28:57.724Z,54.30
2017-11-09T00:31:24.355Z,51.53
2017-11-09T00:33:50.951Z,55.80
2017-11-09T00:36:17.593Z,54.77
2017-11-09T00:38:44.194Z,54.97
2017-11-09T00:41:10.801Z,51.90
2017-11-09T00:43:37.458Z,51.07
2017-11-09T00:46:04.073Z,54.47
2017-11-09T00:48:30.714Z,51.23
2017-11-09T00:50:57.346Z,51.77
2017-11-09T00:53:23.952Z,52.33
2017-11-09T00:55:50.625Z,51.30
2017-11-09T00:58:17.231Z,54.17
2017-11-09T01:00:43.863Z,51.30
2017-11-09T01:03:10.457Z,50.20
2017-11-09T01:05:37.090Z,53.70
2017-11-09T01:08:03.685Z,54.50
2017-11-09T01:10:30.372Z,52.43
2017-11-09T01:12:57.000Z,54.50
2017-11-09T01:15:23.618Z,53.93
2017-11-09T01:17:50.268Z,53.00
2017-11-09T01:20:16.914Z,52.87
2017-11-09T01:22:43.508Z,52.30
2017-11-09T01:25:10.299Z,54.83
2017-11-09T01:27:36.933Z,55.87
2017-11-09T01:30:03.566Z,53.27
2017-11-09T01:32:30.157Z,56.20
2017-11-09T01:34:56.789Z,56.17
2017-11-09T01:37:23.389Z,55.67
2017-11-09T01:39:50.016Z,54.00
2017-11-09T01:42:16.636Z,54.53
2017-11-09T01:44:43.254Z,52.57
2017-11-09T01:47:09.894Z,52.93
2017-11-09T01:49:36.729Z,56.23
2017-11-09T01:52:03.339Z,55.93
2017-11-09T01:54:29.966Z,55.80
2017-11-09T01:56:56.556Z,54.63
2017-11-09T01:59:23.255Z,56.13
2017-11-09T02:01:49.862Z,55.23
2017-11-09T02:04:16.464Z,54.33
2017-11-09T02:06:43.129Z,54.00
2017-11-09T02:09:09.720Z,54.90
2017-11-09T02:11:36.344Z,54.30
2017-11-09T02:14:02.965Z,54.70
2017-11-09T02:16:29.600Z,54.17
2017-11-09T02:18:56.206Z,52.77
2017-11-09T02:21:22.837Z,54.07
2017-11-09T02:23:49.470Z,57.07
2017-11-09T02:26:16.069Z,53.27
2017-11-09T02:28:42.786Z,54.53
2017-11-09T02:31:09.380Z,55.03
2017-11-09T02:33:36.307Z,53.33
2017-11-09T02:36:02.903Z,56.30
2017-11-09T02:38:29.526Z,55.17
2017-11-09T02:40:56.131Z,52.90
2017-11-09T02:43:22.739Z,55.60
2017-11-09T02:45:49.361Z,54.57
2017-11-09T02:48:15.948Z,54.67
2017-11-09T02:50:42.557Z,54.80
2017-11-09T02:53:09.176Z,56.00
2017-11-09T02:55:35.811Z,53.93
2017-11-09T02:58:02.567Z,54.00
2017-11-09T03:00:29.187Z,54.70
2017-11-09T03:02:55.825Z,51.13
2017-11-09T03:05:22.496Z,55.63
2017-11-09T03:07:49.109Z,54.27
2017-11-09T03:10:15.719Z,53.70
2017-11-09T03:12:42.335Z,53.90
2017-11-09T03:15:08.955Z,55.07
2017-11-09T03:17:35.801Z,55.10
2017-11-09T03:20:02.392Z,53.73
2017-11-09T03:22:29.007Z,54.00
2017-11-09T03:24:55.705Z,52.53
2017-11-09T03:27:22.309Z,53.23
2017-11-09T03:29:48.925Z,51.27
2017-11-09T03:32:15.553Z,52.07
2017-11-09T03:34:42.166Z,52.33
2017-11-09T03:37:08.809Z,52.77
2017-11-09T03:39:35.399Z,52.33
2017-11-09T03:42:02.006Z,54.80
2017-11-09T03:44:28.669Z,52.63
2017-11-09T03:46:55.313Z,54.30
2017-11-09T03:49:21.918Z,54.00
2017-11-09T03:51:48.537Z,54.10
2017-11-09T03:54:15.587Z,53.72
2017-11-09T03:56:42.232Z,52.17
2017-11-09T03:59:08.837Z,55.60
2017-11-09T04:01:35.445Z,54.00
2017-11-09T04:04:02.076Z,54.93
2017-11-09T04:06:28.667Z,54.17
2017-11-09T04:08:55.461Z,53.67
2017-11-09T04:11:22.062Z,53.53
2017-11-09T04:13:48.708Z,55.00
2017-11-09T04:16:15.309Z,54.57
2017-11-09T04:18:42.444Z,51.80
2017-11-09T04:21:09.051Z,56.23
2017-11-09T04:23:35.943Z,54.57
2017-11-09T04:26:02.575Z,51.40
2017-11-09T04:28:29.291Z,52.93
2017-11-09T04:30:55.897Z,53.50
2017-11-09T04:33:22.490Z,55.87
2017-11-09T04:35:49.117Z,53.70
2017-11-09T04:38:15.702Z,54.43
2017-11-09T04:40:42.414Z,52.07
2017-11-09T04:43:09.040Z,53.87
2017-11-09T04:45:35.634Z,56.20
2017-11-09T04:48:02.272Z,54.80
2017-11-09T04:50:28.891Z,54.77
2017-11-09T04:52:55.501Z,54.30
2017-11-09T04:55:22.129Z,54.73
2017-11-09T04:57:48.727Z,57.90
2017-11-09T05:00:15.360Z,52.83
2017-11-09T05:02:41.968Z,54.07
2017-11-09T05:05:09.221Z,57.23
2017-11-09T05:07:35.859Z,57.90
2017-11-09T05:10:02.452Z,54.03
2017-11-09T05:12:29.077Z,56.37
2017-11-09T05:14:55.669Z,55.10
2017-11-09T05:17:22.300Z,53.70
2017-11-09T05:19:48.935Z,56.50
2017-11-09T05:22:15.583Z,53.17
2017-11-09T05:24:42.197Z,52.90
2017-11-09T05:27:08.805Z,53.97
2017-11-09T05:29:35.502Z,52.57
2017-11-09T05:32:02.110Z,55.60
2017-11-09T05:34:28.756Z,53.10
2017-11-09T05:36:55.446Z,52.50
2017-11-09T05:39:22.104Z,58.00
2017-11-09T05:41:48.699Z,55.50
2017-11-09T05:44:15.301Z,56.03
2017-11-09T05:46:41.929Z,52.63
2017-11-09T05:49:09.018Z,52.83
2017-11-09T05:51:35.621Z,53.97
2017-11-09T05:54:02.234Z,54.13
2017-11-09T05:56:29.043Z,55.17
2017-11-09T05:58:55.651Z,52.20
2017-11-09T06:01:22.508Z,54.17
2017-11-09T06:03:49.118Z,55.23
2017-11-09T06:06:15.719Z,52.57
2017-11-09T06:08:42.343Z,58.30
2017-11-09T06:11:08.981Z,54.50
2017-11-09T06:13:35.599Z,51.83
2017-11-09T06:16:02.201Z,54.70
2017-11-09T06:18:28.933Z,56.93
2017-11-09T06:20:55.579Z,57.10
2017-11-09T06:23:22.367Z,57.60
2017-11-09T06:25:48.969Z,56.33
2017-11-09T06:28:15.601Z,56.67
2017-11-09T06:30:42.205Z,58.57
2017-11-09T06:33:08.836Z,56.87
2017-11-09T06:35:36.293Z,54.83
2017-11-09T06:38:02.965Z,55.57
2017-11-09T06:40:29.584Z,55.87
2017-11-09T06:42:56.265Z,53.23
2017-11-09T06:45:22.925Z,56.10
2017-11-09T06:47:49.527Z,56.60
2017-11-09T06:50:16.437Z,54.50
2017-11-09T06:52:43.048Z,55.03
2017-11-09T06:55:09.704Z,57.00
2017-11-09T06:57:36.300Z,53.77
2017-11-09T07:00:02.934Z,55.40
2017-11-09T07:02:29.571Z,55.73
2017-11-09T07:04:56.179Z,53.43
2017-11-09T07:07:22.823Z,54.83
2017-11-09T07:09:49.438Z,54.03
2017-11-09T07:12:16.085Z,54.07
2017-11-09T07:14:42.685Z,57.10
2017-11-09T07:17:09.349Z,54.90
2017-11-09T07:19:36.007Z,53.80
2017-11-09T07:22:02.736Z,54.00
2017-11-09T07:24:29.546Z,58.17
2017-11-09T07:26:56.195Z,56.40
2017-11-09T07:29:22.839Z,56.20
2017-11-09T07:31:49.447Z,56.03
2017-11-09T07:34:16.503Z,55.63
2017-11-09T07:36:43.412Z,56.47
2017-11-09T07:39:10.041Z,54.57
2017-11-09T07:41:36.849Z,54.67
2017-11-09T07:44:03.592Z,54.60
2017-11-09T07:46:30.261Z,54.03
2017-11-09T07:48:57.034Z,51.70
2017-11-09T07:51:23.729Z,53.30
2017-11-09T07:53:50.329Z,53.17
2017-11-09T07:56:16.976Z,55.37
2017-11-09T07:58:43.647Z,53.90
2017-11-09T08:01:10.345Z,55.57
2017-11-09T08:03:36.975Z,56.30
2017-11-09T08:06:03.628Z,51.90
2017-11-09T08:08:30.237Z,54.17
2017-11-09T08:10:56.932Z,52.70
2017-11-09T08:13:23.561Z,54.37
2017-11-09T08:15:50.146Z,51.57
2017-11-09T08:18:16.831Z,54.23
2017-11-09T08:20:43.485Z,56.40
2017-11-09T08:23:10.103Z,58.47
2017-11-09T08:25:38.737Z,53.47
2017-11-09T08:28:06.072Z,54.33
2017-11-09T08:30:36.222Z,53.83
2017-11-09T08:33:05.263Z,54.27
2017-11-09T08:35:32.196Z,52.10
2017-11-09T08:37:58.844Z,55.30
2017-11-09T08:40:25.494Z,55.97
2017-11-09T08:42:52.227Z,55.43
2017-11-09T08:45:19.140Z,54.97
2017-11-09T08:47:45.794Z,53.70
2017-11-09T08:50:12.669Z,53.20
2017-11-09T08:52:39.329Z,54.50
2017-11-09T08:55:05.992Z,54.80
2017-11-09T08:57:32.610Z,53.57
2017-11-09T08:59:59.280Z,51.23
2017-11-09T09:02:25.888Z,52.20
2017-11-09T09:04:52.539Z,55.10
2017-11-09T09:07:19.156Z,54.30
2017-11-09T09:09:45.829Z,54.43
2017-11-09T09:12:12.494Z,52.50
2017-11-09T09:14:39.257Z,51.77
2017-11-09T09:17:05.864Z,53.73
2017-11-09T09:19:32.547Z,51.23
2017-11-09T09:22:00.032Z,54.60
2017-11-09T09:24:28.302Z,53.10
2017-11-09T09:26:58.663Z,55.50
2017-11-09T09:29:27.971Z,51.80
2017-11-09T09:31:54.610Z,52.93
2017-11-09T09:34:30.749Z,50.27
2017-11-09T09:37:04.814Z,51.40
2017-11-09T09:39:34.236Z,51.60
2017-11-09T09:42:00.916Z,52.47
2017-11-09T09:44:27.575Z,52.77
2017-11-09T09:46:54.205Z,54.80
2017-11-09T09:49:20.821Z,55.40
2017-11-09T09:51:47.446Z,48.30
2017-11-09T09:54:14.116Z,47.80
2017-11-09T09:56:40.732Z,50.80
2017-11-09T09:59:07.365Z,48.23
2017-11-09T10:01:34.029Z,49.40
2017-11-09T10:04:00.670Z,48.00
2017-11-09T10:06:27.300Z,54.60
2017-11-09T10:08:53.911Z,51.10
2017-11-09T10:11:20.552Z,51.37
2017-11-09T10:13:47.169Z,50.10
2017-11-09T10:16:13.788Z,49.47
2017-11-09T10:18:40.452Z,50.83
2017-11-09T10:21:07.131Z,50.67
2017-11-09T10:23:34.339Z,49.97
2017-11-09T10:26:01.044Z,50.13
2017-11-09T10:28:27.628Z,52.07
2017-11-09T10:30:54.300Z,50.60
2017-11-09T10:33:20.908Z,51.60
2017-11-09T10:35:47.545Z,49.63
2017-11-09T10:38:14.182Z,47.53
2017-11-09T10:40:40.813Z,49.87
2017-11-09T10:43:07.443Z,48.23
2017-11-09T10:45:34.058Z,50.37
2017-11-09T10:48:00.692Z,51.47
2017-11-09T10:50:27.340Z,48.90
2017-11-09T10:52:54.029Z,54.30
2017-11-09T10:55:20.661Z,52.73
2017-11-09T10:57:47.327Z,49.70
2017-11-09T11:00:13.954Z,48.80
2017-11-09T11:02:40.597Z,47.90
2017-11-09T11:05:07.215Z,48.47
2017-11-09T11:07:33.878Z,50.07
2017-11-09T11:10:00.546Z,49.77
2017-11-09T11:12:27.152Z,48.17
2017-11-09T11:14:53.768Z,50.33
2017-11-09T11:17:20.395Z,47.80
2017-11-09T11:19:47.022Z,45.50
2017-11-09T11:22:13.629Z,49.80
2017-11-09T11:24:40.266Z,47.03
2017-11-09T11:27:06.931Z,49.47
2017-11-09T11:29:33.807Z,47.47
2017-11-09T11:32:00.408Z,47.50
2017-11-09T11:34:27.068Z,45.20
2017-11-09T11:36:53.692Z,42.00
2017-11-09T11:39:20.293Z,40.00
2017-11-09T11:41:47.650Z,38.88
2017-11-09T11:44:14.250Z,38.03
2017-11-09T11:46:41.034Z,36.47
2017-11-09T11:49:07.651Z,37.30
2017-11-09T11:51:34.263Z,39.77
2017-11-09T11:54:01.093Z,38.00
2017-11-09T11:56:27.737Z,36.17
2017-11-09T11:58:54.402Z,36.80
2017-11-09T12:01:21.028Z,36.73
2017-11-09T12:03:47.641Z,35.90
2017-11-09T12:06:14.272Z,38.10
2017-11-09T12:08:40.904Z,38.00
2017-11-09T12:11:07.512Z,37.27
2017-11-09T12:13:34.219Z,34.80
2017-11-09T12:16:01.044Z,37.17
2017-11-09T12:18:27.704Z,35.27
2017-11-09T12:20:54.299Z,34.50
2017-11-09T12:23:20.904Z,37.80
2017-11-09T12:25:47.527Z,36.07
2017-11-09T12:28:14.195Z,37.70
2017-11-09T12:30:40.798Z,36.57
2017-11-09T12:33:07.684Z,34.03
2017-11-09T12:35:34.344Z,36.10
2017-11-09T12:38:00.949Z,37.30
2017-11-09T12:40:27.643Z,38.57
2017-11-09T12:42:54.277Z,35.73
2017-11-09T12:45:20.896Z,34.60
2017-11-09T12:47:47.520Z,34.47
2017-11-09T12:50:14.216Z,37.20
2017-11-09T12:52:40.864Z,33.60
2017-11-09T12:55:07.495Z,35.37
2017-11-09T12:57:34.094Z,36.30
2017-11-09T13:00:00.826Z,37.43
2017-11-09T13:02:27.491Z,34.07
2017-11-09T13:04:54.258Z,32.90
2017-11-09T13:07:20.902Z,36.37
2017-11-09T13:09:47.558Z,34.53
2017-11-09T13:12:14.152Z,33.67
2017-11-09T13:14:40.770Z,37.93
2017-11-09T13:17:07.386Z,36.90
2017-11-09T13:19:34.068Z,38.23
2017-11-09T13:22:00.693Z,40.23
2017-11-09T13:24:27.306Z,37.63
2017-11-09T13:26:53.943Z,36.63
2017-11-09T13:29:20.543Z,38.23
2017-11-09T13:31:47.895Z,37.38
2017-11-09T13:34:17.154Z,37.27
2017-11-09T13:36:43.782Z,38.00
2017-11-09T13:39:10.424Z,38.20
2017-11-09T13:41:37.061Z,37.40
2017-11-09T13:44:03.766Z,39.80
2017-11-09T13:46:30.533Z,37.53
2017-11-09T13:48:57.159Z,40.07
2017-11-09T13:51:23.755Z,33.50
2017-11-09T13:53:50.396Z,37.27
2017-11-09T13:56:17.003Z,40.67
2017-11-09T13:58:43.679Z,39.10
2017-11-09T14:01:10.309Z,37.13
2017-11-09T14:03:36.949Z,37.67
2017-11-09T14:06:03.566Z,36.47
2017-11-09T14:08:30.178Z,36.40
2017-11-09T14:10:56.886Z,42.20
2017-11-09T14:13:23.490Z,37.73
2017-11-09T14:15:50.338Z,36.37
2017-11-09T14:18:17.007Z,41.30
2017-11-09T14:20:43.655Z,37.33
2017-11-09T15:06:49.169Z,34.23
2017-11-09T15:09:16.704Z,35.87
2017-11-09T15:11:43.312Z,36.27
2017-11-09T15:14:09.952Z,37.63
2017-11-09T15:16:36.606Z,37.00
2017-11-09T15:19:03.225Z,39.03
2017-11-09T15:21:29.914Z,37.60
2017-11-09T15:23:56.566Z,39.80
2017-11-09T15:26:23.265Z,40.03
2017-11-09T15:28:49.874Z,38.37
2017-11-09T15:31:16.514Z,37.57
2017-11-09T15:33:43.139Z,35.23
2017-11-09T15:36:09.787Z,41.03
2017-11-09T15:38:36.384Z,33.37
2017-11-09T15:41:03.040Z,36.27
2017-11-09T15:43:29.645Z,39.53
2017-11-09T15:45:56.814Z,39.00
2017-11-09T15:48:23.428Z,38.70
2017-11-09T15:50:50.018Z,35.83
2017-11-09T15:53:16.654Z,37.30
2017-11-09T15:55:43.258Z,34.83
2017-11-09T15:58:09.851Z,34.90
2017-11-09T16:00:36.804Z,34.13
2017-11-09T16:03:03.460Z,37.60
2017-11-09T16:05:30.044Z,34.67
2017-11-09T16:07:56.700Z,34.13
2017-11-09T16:10:23.359Z,35.67
2017-11-09T16:12:49.973Z,35.57
2017-11-09T16:15:16.668Z,38.17
2017-11-09T16:17:43.342Z,41.47
2017-11-09T16:20:09.980Z,35.43
2017-11-09T16:22:36.622Z,36.60
2017-11-09T16:25:03.266Z,36.70
2017-11-09T16:27:30.664Z,40.45
2017-11-09T16:29:57.279Z,38.57
2017-11-09T17:16:03.227Z,30.73
2017-11-09T17:18:33.737Z,29.93
2017-11-09T17:21:00.386Z,31.40
2017-11-09T17:23:27.017Z,28.30
2017-11-09T17:25:53.623Z,27.17
2017-11-09T17:28:20.279Z,30.03
2017-11-09T17:30:46.898Z,29.27
2017-11-09T17:33:13.499Z,29.80
2017-11-09T17:35:40.711Z,32.00
2017-11-09T17:38:07.333Z,28.67
2017-11-09T17:40:33.950Z,29.00
2017-11-09T17:43:00.611Z,30.00
2017-11-09T17:45:27.236Z,32.57
2017-11-09T17:47:53.873Z,33.90
2017-11-09T17:50:20.480Z,34.40
2017-11-09T17:52:50.030Z,35.30
2017-11-09T17:55:16.707Z,36.13
2017-11-09T17:57:43.317Z,37.10
2017-11-09T18:00:17.661Z,37.67
2017-11-09T18:02:44.367Z,39.23
2017-11-09T18:05:10.973Z,33.60
2017-11-09T18:07:37.602Z,34.27
2017-11-09T18:10:04.280Z,36.53
2017-11-09T18:12:31.025Z,35.60
2017-11-09T18:14:57.662Z,35.33
2017-11-09T18:17:24.287Z,36.30
2017-11-09T18:19:50.941Z,36.60
2017-11-09T18:22:19.474Z,35.23
2017-11-09T18:24:46.077Z,35.03
2017-11-09T18:27:12.831Z,36.93
2017-11-09T18:29:39.565Z,34.80
2017-11-09T18:32:06.269Z,35.67
2017-11-09T18:34:32.909Z,34.83
2017-11-09T18:36:59.538Z,35.17
2017-11-09T18:39:26.163Z,35.63
2017-11-09T18:41:52.794Z,35.30
2017-11-09T18:44:19.495Z,33.80
2017-11-09T18:46:46.176Z,32.97
2017-11-09T18:49:12.833Z,35.40
2017-11-09T18:51:39.595Z,34.73
2017-11-09T18:54:06.319Z,33.23
2017-11-09T18:56:33.145Z,34.77
2017-11-09T18:59:03.320Z,34.43
2017-11-09T19:01:29.968Z,32.30
2017-11-09T19:03:56.595Z,32.60
2017-11-09T19:06:23.257Z,36.80
2017-11-09T19:08:49.870Z,34.77
2017-11-09T19:11:16.509Z,39.37
2017-11-09T19:13:43.216Z,35.00
2017-11-09T19:16:09.814Z,37.83
2017-11-09T19:18:36.467Z,35.80
2017-11-09T19:21:03.078Z,31.17
2017-11-09T19:23:29.733Z,33.73
2017-11-09T19:25:56.343Z,34.40
2017-11-09T19:28:22.990Z,32.00
2017-11-09T19:30:49.613Z,30.80
2017-11-09T19:33:16.678Z,29.93
2017-11-09T19:35:43.367Z,28.77
2017-11-09T19:38:10.003Z,28.80
2017-11-09T19:40:36.597Z,29.07
2017-11-09T19:43:03.751Z,29.67
2017-11-09T19:45:30.399Z,25.43
2017-11-09T19:47:57.025Z,27.97
2017-11-09T19:50:23.684Z,27.60
2017-11-09T19:52:50.298Z,29.27
2017-11-09T19:55:16.908Z,28.50
2017-11-09T19:57:43.570Z,24.70
2017-11-09T20:02:43.221Z,23.23
2017-11-09T20:05:09.962Z,26.40
2017-11-09T20:07:36.637Z,25.43
2017-11-09T20:10:03.315Z,25.47
2017-11-09T20:12:29.920Z,23.83
2017-11-09T20:14:56.621Z,25.47
2017-11-09T20:17:23.245Z,25.47
2017-11-09T20:19:49.918Z,23.87
2017-11-09T20:22:16.561Z,25.87
2017-11-09T20:24:43.932Z,23.80
2017-11-09T20:27:10.899Z,23.90
2017-11-09T20:29:37.543Z,24.20
2017-11-09T20:32:04.215Z,24.17
2017-11-09T20:34:30.879Z,23.37
2017-11-09T20:36:57.757Z,26.10
2017-11-09T20:39:24.539Z,25.00
2017-11-09T20:41:51.224Z,25.90
2017-11-09T20:44:18.199Z,24.17
2017-11-09T20:46:45.160Z,24.53
2017-11-09T20:49:11.785Z,24.20
2017-11-09T20:51:38.972Z,24.27
2017-11-09T20:54:05.640Z,23.73
2017-11-09T20:56:32.638Z,24.10
2017-11-09T20:58:59.270Z,27.17
2017-11-09T21:01:25.926Z,25.30
2017-11-09T21:03:52.539Z,23.70
2017-11-09T21:06:19.256Z,23.53
2017-11-09T21:08:45.939Z,23.67
2017-11-09T21:11:12.586Z,22.67
2017-11-09T21:13:39.209Z,24.70
2017-11-09T21:16:05.841Z,22.80
2017-11-09T21:18:32.580Z,23.63
2017-11-09T21:20:59.259Z,25.00
2017-11-09T21:23:25.987Z,23.20
2017-11-09T21:25:52.793Z,22.67
2017-11-09T21:28:19.431Z,24.00
2017-11-09T21:30:46.078Z,23.67
2017-11-09T21:33:12.774Z,23.57
2017-11-09T21:35:39.391Z,22.70
2017-11-09T21:38:06.027Z,24.97
2017-11-09T21:40:32.638Z,23.50
2017-11-09T21:42:59.259Z,22.60
2017-11-09T21:45:25.875Z,22.00
2017-11-09T21:47:52.526Z,22.33
2017-11-09T21:50:19.116Z,22.37
2017-11-09T21:52:45.757Z,21.57
2017-11-09T21:55:13.088Z,24.23
2017-11-09T21:57:39.798Z,23.80
2017-11-09T22:00:06.398Z,22.57
2017-11-09T22:02:33.384Z,24.13
2017-11-09T22:05:00.302Z,21.50
2017-11-09T22:07:26.996Z,23.13
2017-11-09T22:09:53.618Z,21.73
2017-11-09T22:12:20.331Z,20.60
2017-11-09T22:14:46.937Z,23.10
2017-11-09T22:17:13.542Z,20.50
2017-11-09T22:19:40.163Z,21.83
2017-11-09T22:22:06.804Z,21.53
2017-11-09T22:24:33.454Z,20.27
2017-11-09T22:27:00.614Z,21.40
2017-11-09T22:29:27.231Z,21.27
2017-11-09T22:31:53.893Z,21.17
2017-11-09T22:34:20.549Z,19.93
2017-11-09T22:36:47.207Z,20.53
2017-11-09T22:39:13.829Z,20.07
2017-11-09T22:41:40.443Z,21.37
2017-11-09T22:44:07.070Z,20.80
2017-11-09T22:46:33.704Z,19.87
2017-11-09T22:49:00.302Z,22.10
2017-11-09T22:51:26.922Z,20.53
2017-11-09T22:53:53.560Z,21.70
2017-11-09T22:56:20.171Z,20.43
2017-11-09T22:58:47.089Z,20.67
2017-11-09T23:01:13.709Z,23.10
2017-11-09T23:03:40.330Z,20.70
2017-11-09T23:06:06.957Z,21.90
2017-11-09T23:08:33.555Z,19.40
2017-11-09T23:11:00.165Z,20.73
2017-11-09T23:13:26.761Z,20.77
2017-11-09T23:15:53.401Z,20.20
2017-11-09T23:18:20.066Z,19.83
2017-11-09T23:20:46.699Z,20.17
2017-11-09T23:23:13.283Z,19.40
2017-11-09T23:25:39.998Z,20.93
2017-11-09T23:28:06.612Z,21.13
2017-11-09T23:30:33.224Z,20.40
2017-11-09T23:32:59.856Z,20.43
2017-11-09T23:35:26.494Z,21.53
2017-11-09T23:37:53.110Z,20.40
2017-11-09T23:40:19.744Z,20.40
2017-11-09T23:42:46.394Z,21.57
2017-11-09T23:45:13.012Z,21.87
2017-11-09T23:47:39.658Z,21.97
2017-11-09T23:50:06.281Z,21.33
2017-11-09T23:52:32.887Z,21.23
2017-11-09T23:54:59.495Z,22.97
2017-11-09T23:57:26.105Z,21.77
2017-11-09T23:59:52.965Z,22.03
